New Point, Virginia
Current Conditions -  °F | °C
As of 3:58 PM on Saturday 20 Dec 2014 (Local Time) from KLFI Reporting Station
Overcast Overcast  
Wind Chill: 39°   Ceiling: 7000
Heat Index: 39°   Visibility: 10mi
Dew Point: 29°   Wind: 3mph
Humidity: 69%   Direction: 60°ENE
Pressure: 30.28"   Gusts: NA
Location:  37.35°N, 76.28°W
Report Text: KLFI 202058Z AUTO 06003KT 10SM OVC070 04/M01 A3028 RMK AO2 SLP261 T00381015 55001 $
Loading
Personal Weather Stations






























Interactive Weather Map New forecast layout! Learn more

10-Day Weather Forecast

Advertisements
Track Severe Weather on mobile